createdAt,value
2023-05-13T00:01:28.463Z,13.60
2023-05-13T00:03:55.517Z,13.60
2023-05-13T00:06:22.539Z,13.60
2023-05-13T00:08:49.498Z,13.60
2023-05-13T00:11:16.382Z,13.50
2023-05-13T00:13:43.238Z,13.50
2023-05-13T00:16:10.245Z,13.50
2023-05-13T00:18:37.264Z,13.50
2023-05-13T00:21:04.450Z,13.40
2023-05-13T00:23:31.399Z,13.40
2023-05-13T00:25:58.698Z,13.50
2023-05-13T00:28:25.599Z,13.50
2023-05-13T00:30:52.526Z,13.60
2023-05-13T00:33:19.352Z,13.60
2023-05-13T00:35:46.243Z,13.70
2023-05-13T00:38:13.157Z,13.60
2023-05-13T00:40:40.123Z,13.70
2023-05-13T00:43:06.998Z,13.70
2023-05-13T00:45:33.959Z,13.90
2023-05-13T00:48:00.989Z,14.10
2023-05-13T00:50:27.874Z,14.20
2023-05-13T00:52:54.937Z,14.30
2023-05-13T00:55:21.833Z,14.30
2023-05-13T00:57:48.791Z,14.40
2023-05-13T01:00:16.090Z,14.30
2023-05-13T01:02:51.346Z,14.30
2023-05-13T01:05:38.197Z,14.10
2023-05-13T01:08:24.563Z,14.00
2023-05-13T01:11:03.098Z,13.80
2023-05-13T01:13:34.658Z,13.70
2023-05-13T01:16:10.610Z,13.70
2023-05-13T01:18:43.747Z,13.70
2023-05-13T01:21:10.699Z,13.70
2023-05-13T01:23:38.920Z,13.70
2023-05-13T01:26:05.877Z,13.70
2023-05-13T01:28:32.825Z,13.70
2023-05-13T01:30:59.985Z,13.70
2023-05-13T01:33:26.940Z,13.70
2023-05-13T01:35:53.893Z,13.70
2023-05-13T01:38:21.057Z,13.70
2023-05-13T01:40:48.070Z,13.70
2023-05-13T01:43:14.982Z,13.70
2023-05-13T01:45:41.905Z,13.80
2023-05-13T01:48:08.940Z,13.80
2023-05-13T01:50:35.907Z,13.80
2023-05-13T01:53:02.906Z,13.70
2023-05-13T01:55:29.877Z,13.70
2023-05-13T01:57:56.795Z,13.70
2023-05-13T02:00:24.013Z,13.70
2023-05-13T02:02:51.162Z,13.80
2023-05-13T02:05:18.460Z,13.80
2023-05-13T02:07:45.490Z,13.80
2023-05-13T02:10:12.541Z,13.80
2023-05-13T02:12:39.506Z,13.70
2023-05-13T02:15:07.115Z,13.60
2023-05-13T02:17:34.091Z,13.60
2023-05-13T02:20:01.089Z,13.50
2023-05-13T02:22:28.056Z,13.60
2023-05-13T02:24:55.012Z,13.60
2023-05-13T02:27:21.998Z,13.60
2023-05-13T02:29:48.984Z,13.60
2023-05-13T02:32:16.105Z,13.60
2023-05-13T02:34:43.250Z,13.60
2023-05-13T02:37:10.307Z,13.60
2023-05-13T02:39:37.346Z,13.60
2023-05-13T02:42:04.729Z,13.50
2023-05-13T02:44:31.714Z,13.50
2023-05-13T02:46:58.713Z,13.50
2023-05-13T02:49:25.760Z,13.50
2023-05-13T02:51:52.793Z,13.40
2023-05-13T02:54:19.941Z,13.40
2023-05-13T02:56:46.930Z,13.50
2023-05-13T02:59:13.829Z,13.50
2023-05-13T03:01:40.880Z,13.50
2023-05-13T03:04:07.961Z,13.50
2023-05-13T03:06:34.996Z,13.60
2023-05-13T03:09:01.987Z,13.60
2023-05-13T03:11:28.968Z,13.60
2023-05-13T03:13:55.976Z,13.60
2023-05-13T03:16:22.998Z,13.70
2023-05-13T03:18:50.058Z,13.60
2023-05-13T03:21:17.032Z,13.70
2023-05-13T03:23:44.746Z,13.70
2023-05-13T03:26:11.789Z,13.50
2023-05-13T03:28:38.758Z,13.50
2023-05-13T03:31:05.987Z,13.50
2023-05-13T03:33:33.057Z,13.50
2023-05-13T03:35:59.992Z,13.50
2023-05-13T03:38:27.015Z,13.60
2023-05-13T03:40:53.952Z,13.70
2023-05-13T03:43:20.943Z,13.70
2023-05-13T03:45:47.941Z,13.60
2023-05-13T03:48:15.648Z,13.60
2023-05-13T03:50:42.685Z,13.50
2023-05-13T03:53:10.851Z,13.40
2023-05-13T03:55:37.812Z,13.40
2023-05-13T03:58:15.057Z,13.40
2023-05-13T04:00:42.398Z,13.40
2023-05-13T04:03:09.792Z,13.50
2023-05-13T04:05:36.781Z,13.50
2023-05-13T04:08:03.876Z,13.40
2023-05-13T04:10:30.853Z,13.40
2023-05-13T04:12:58.023Z,13.30
2023-05-13T04:15:24.948Z,13.40
2023-05-13T04:17:52.280Z,13.40
2023-05-13T04:20:19.690Z,13.40
2023-05-13T04:22:46.788Z,13.40
2023-05-13T04:25:13.844Z,13.30
2023-05-13T04:27:40.691Z,13.30
2023-05-13T04:30:08.333Z,13.20
2023-05-13T04:32:35.230Z,13.30
2023-05-13T04:35:02.169Z,13.20
2023-05-13T04:37:29.029Z,13.10
2023-05-13T04:39:55.904Z,13.20
2023-05-13T04:42:22.767Z,13.20
2023-05-13T04:44:49.660Z,13.20
2023-05-13T04:47:16.567Z,13.20
2023-05-13T04:49:43.522Z,13.20
2023-05-13T04:52:10.772Z,13.20
2023-05-13T04:54:37.689Z,13.20
2023-05-13T04:57:05.027Z,13.20
2023-05-13T04:59:32.241Z,13.20
2023-05-13T05:01:59.171Z,13.20
2023-05-13T05:04:26.702Z,13.20
2023-05-13T05:06:53.949Z,13.30
2023-05-13T05:09:20.842Z,13.30
2023-05-13T05:11:47.765Z,13.40
2023-05-13T05:14:14.656Z,13.30
2023-05-13T05:16:41.576Z,13.40
2023-05-13T05:19:08.492Z,13.50
2023-05-13T05:21:35.511Z,13.60
2023-05-13T05:24:02.373Z,13.80
2023-05-13T05:26:29.303Z,13.90
2023-05-13T05:28:56.219Z,13.90
2023-05-13T05:31:23.166Z,14.00
2023-05-13T05:33:50.084Z,14.00
2023-05-13T05:36:16.994Z,14.00
2023-05-13T05:38:43.879Z,14.00
2023-05-13T05:41:10.819Z,13.80
2023-05-13T05:43:37.695Z,13.70
2023-05-13T05:46:04.635Z,13.70
2023-05-13T05:48:34.388Z,13.70
2023-05-13T05:51:01.594Z,13.60
2023-05-13T05:53:28.456Z,13.50
2023-05-13T05:55:55.369Z,13.60
2023-05-13T05:58:22.276Z,13.50
2023-05-13T06:00:49.202Z,13.40
2023-05-13T06:03:16.242Z,13.30
2023-05-13T06:05:43.304Z,13.30
2023-05-13T06:08:10.154Z,13.20
2023-05-13T06:10:37.062Z,13.20
2023-05-13T06:13:04.284Z,13.10
2023-05-13T06:15:31.223Z,13.00
2023-05-13T06:17:58.250Z,13.00
2023-05-13T06:20:25.178Z,13.00
2023-05-13T06:22:52.086Z,13.10
2023-05-13T06:25:19.038Z,13.10
2023-05-13T06:27:45.914Z,13.10
2023-05-13T06:30:13.071Z,13.10
2023-05-13T06:32:47.305Z,13.20
2023-05-13T06:35:21.131Z,13.20
2023-05-13T06:37:48.013Z,13.10
2023-05-13T06:40:14.960Z,13.10
2023-05-13T06:42:41.884Z,13.10
2023-05-13T06:45:09.638Z,13.00
2023-05-13T06:47:36.572Z,13.10
2023-05-13T06:50:04.004Z,13.20
2023-05-13T06:52:30.859Z,13.20
2023-05-13T06:54:58.179Z,13.30
2023-05-13T06:57:32.249Z,13.40
2023-05-13T07:00:06.796Z,13.60
2023-05-13T07:02:33.808Z,13.70
2023-05-13T07:05:00.664Z,13.80
2023-05-13T07:07:27.515Z,13.80
2023-05-13T07:09:54.378Z,13.90
2023-05-13T07:12:21.279Z,13.90
2023-05-13T07:14:48.221Z,13.90
2023-05-13T07:17:15.159Z,13.90
2023-05-13T07:19:42.134Z,14.00
2023-05-13T07:22:09.065Z,14.10
2023-05-13T07:24:35.969Z,14.30
2023-05-13T07:27:02.823Z,14.30
2023-05-13T07:29:32.161Z,14.40
2023-05-13T07:32:03.832Z,14.50
2023-05-13T07:34:30.785Z,14.60
2023-05-13T07:36:57.667Z,14.50
2023-05-13T07:39:24.684Z,14.50
2023-05-13T07:41:51.607Z,14.50
2023-05-13T07:44:18.629Z,14.40
2023-05-13T07:46:45.614Z,14.50
2023-05-13T07:49:12.559Z,14.50
2023-05-13T07:51:39.510Z,14.50
2023-05-13T07:54:06.456Z,14.50
2023-05-13T07:56:33.377Z,14.70
2023-05-13T07:59:01.594Z,14.70
2023-05-13T08:01:28.544Z,14.70
2023-05-13T08:03:55.786Z,14.60
2023-05-13T08:06:22.858Z,14.70
2023-05-13T08:08:49.756Z,14.80
2023-05-13T08:11:16.708Z,15.00
2023-05-13T08:13:43.606Z,15.10
2023-05-13T08:16:10.611Z,15.20
2023-05-13T08:18:37.572Z,15.30
2023-05-13T08:21:04.773Z,15.30
2023-05-13T08:23:44.247Z,15.40
2023-05-13T08:26:12.906Z,15.40
2023-05-13T08:28:39.808Z,15.30
2023-05-13T08:31:06.890Z,15.30
2023-05-13T08:33:33.747Z,15.30
2023-05-13T08:36:00.963Z,15.40
2023-05-13T08:38:27.992Z,15.40
2023-05-13T08:40:54.987Z,15.50
2023-05-13T08:43:21.917Z,15.60
2023-05-13T08:45:48.816Z,15.70
2023-05-13T08:48:16.196Z,15.60
2023-05-13T08:50:43.429Z,15.60
2023-05-13T08:53:11.845Z,15.50
2023-05-13T08:55:41.773Z,15.70
2023-05-13T08:58:08.703Z,15.60
2023-05-13T09:00:35.650Z,15.70
2023-05-13T09:03:02.653Z,15.90
2023-05-13T09:05:29.675Z,16.10
2023-05-13T09:07:56.579Z,16.20
2023-05-13T09:10:23.466Z,16.40
2023-05-13T09:12:56.560Z,16.40
2023-05-13T09:15:25.555Z,16.30
2023-05-13T09:18:02.328Z,16.40
2023-05-13T09:20:29.377Z,16.50
2023-05-13T09:23:02.621Z,16.60
2023-05-13T09:25:30.129Z,16.30
2023-05-13T09:28:01.743Z,16.10
2023-05-13T09:30:30.420Z,16.20
2023-05-13T09:33:14.624Z,16.40
2023-05-13T09:35:50.041Z,16.40
2023-05-13T09:38:21.877Z,16.40
2023-05-13T09:40:56.321Z,16.40
2023-05-13T09:43:25.096Z,16.50
2023-05-13T09:45:57.949Z,16.40
2023-05-13T09:48:26.444Z,16.50
2023-05-13T09:50:53.493Z,16.80
2023-05-13T09:53:20.591Z,17.00
2023-05-13T09:55:55.849Z,17.10
2023-05-13T09:58:23.972Z,17.30
2023-05-13T10:00:51.450Z,17.50
2023-05-13T10:03:18.616Z,17.60
2023-05-13T10:05:45.802Z,17.60
2023-05-13T10:08:14.125Z,17.70
2023-05-13T10:10:42.039Z,17.60
2023-05-13T10:13:09.890Z,17.60
2023-05-13T10:15:37.117Z,17.80
2023-05-13T10:18:06.654Z,17.70
2023-05-13T10:20:34.297Z,17.90
2023-05-13T10:23:01.276Z,18.00
2023-05-13T10:25:28.196Z,18.10
2023-05-13T10:27:55.135Z,18.20
2023-05-13T10:30:22.292Z,18.10
2023-05-13T10:32:49.394Z,18.20
2023-05-13T10:35:17.261Z,18.30
2023-05-13T10:38:20.439Z,18.30
2023-05-13T10:41:05.143Z,18.40
2023-05-13T10:43:32.125Z,18.60
2023-05-13T10:46:01.831Z,18.90
2023-05-13T10:49:00.113Z,19.20
2023-05-13T10:51:27.504Z,19.20
2023-05-13T10:53:56.606Z,19.30
2023-05-13T10:56:25.527Z,19.40
2023-05-13T10:59:06.266Z,19.40
2023-05-13T11:01:42.463Z,19.60
2023-05-13T11:04:17.851Z,19.60
2023-05-13T11:06:47.584Z,20.30
2023-05-13T11:09:21.662Z,20.50
2023-05-13T11:11:52.787Z,20.50
2023-05-13T11:14:21.522Z,20.70
2023-05-13T11:17:00.822Z,20.70
2023-05-13T11:19:29.149Z,20.90
2023-05-13T11:22:09.305Z,21.10
2023-05-13T11:24:36.253Z,20.80
2023-05-13T11:27:20.440Z,20.50
2023-05-13T11:29:54.962Z,20.10
2023-05-13T11:32:55.350Z,20.30
2023-05-13T11:35:26.738Z,20.30
2023-05-13T11:38:00.114Z,20.40
2023-05-13T11:40:32.258Z,20.40
2023-05-13T11:42:59.578Z,20.30
2023-05-13T11:45:27.037Z,20.30
2023-05-13T11:47:54.460Z,20.40
2023-05-13T11:50:29.099Z,20.80
2023-05-13T11:52:57.988Z,21.10
2023-05-13T11:55:35.271Z,21.30
2023-05-13T11:58:02.264Z,21.00
2023-05-13T12:00:34.500Z,21.20
2023-05-13T12:03:05.330Z,21.30
2023-05-13T12:05:32.526Z,21.20
2023-05-13T12:07:59.596Z,21.30
2023-05-13T12:10:26.847Z,21.80
2023-05-13T12:12:53.760Z,22.10
2023-05-13T12:15:21.684Z,22.10
2023-05-13T12:17:49.013Z,21.70
2023-05-13T12:20:21.085Z,21.40
2023-05-13T12:22:48.152Z,21.30
2023-05-13T12:25:43.738Z,21.50
2023-05-13T12:28:12.316Z,21.80
2023-05-13T12:30:49.115Z,22.10
2023-05-13T12:33:16.892Z,21.80
2023-05-13T12:35:44.975Z,22.00
2023-05-13T12:38:24.658Z,22.10
2023-05-13T12:40:51.798Z,21.90
2023-05-13T12:43:19.010Z,21.70
2023-05-13T12:45:47.625Z,21.80
2023-05-13T12:48:14.585Z,22.20
2023-05-13T12:50:41.580Z,22.50
2023-05-13T12:53:08.448Z,22.60
2023-05-13T12:55:35.418Z,22.10
2023-05-13T12:58:03.422Z,22.00
2023-05-13T13:00:30.778Z,21.90
2023-05-13T13:02:58.065Z,21.90
2023-05-13T13:05:26.292Z,21.80
2023-05-13T13:07:53.291Z,22.00
2023-05-13T13:10:20.343Z,22.00
2023-05-13T13:12:47.416Z,21.60
2023-05-13T13:15:14.379Z,21.60
2023-05-13T13:17:41.308Z,21.80
2023-05-13T13:20:08.621Z,21.90
2023-05-13T13:22:35.532Z,21.90
2023-05-13T13:25:04.642Z,22.00
2023-05-13T13:27:32.537Z,22.00
2023-05-13T13:29:59.577Z,22.10
2023-05-13T13:32:26.780Z,22.40
2023-05-13T13:34:53.904Z,22.20
2023-05-13T13:37:20.873Z,22.40
2023-05-13T13:39:47.892Z,22.60
2023-05-13T13:42:14.968Z,22.60
2023-05-13T13:44:41.963Z,22.50
2023-05-13T13:47:09.845Z,22.50
2023-05-13T13:49:36.945Z,22.30
2023-05-13T13:52:04.216Z,22.20
2023-05-13T13:54:31.190Z,22.20
2023-05-13T13:56:58.350Z,22.20
2023-05-13T13:59:25.271Z,22.30
2023-05-13T14:01:52.253Z,22.10
2023-05-13T14:04:19.869Z,22.10
2023-05-13T14:06:46.888Z,21.90
2023-05-13T14:09:13.781Z,21.70
2023-05-13T14:11:40.813Z,21.50
2023-05-13T14:14:08.544Z,21.70
2023-05-13T14:16:36.289Z,22.10
2023-05-13T14:19:03.421Z,22.30
2023-05-13T14:21:30.403Z,22.40
2023-05-13T14:23:57.443Z,22.60
2023-05-13T14:26:24.428Z,22.80
2023-05-13T14:28:51.374Z,22.50
2023-05-13T14:31:18.382Z,22.40
2023-05-13T14:33:45.367Z,22.60
2023-05-13T14:36:12.302Z,22.70
2023-05-13T14:38:39.291Z,22.90
2023-05-13T14:41:06.270Z,23.20
2023-05-13T14:43:33.190Z,22.90
2023-05-13T14:46:00.154Z,22.90
2023-05-13T14:48:27.129Z,22.50
2023-05-13T14:50:54.076Z,22.50
2023-05-13T14:53:21.070Z,22.70
2023-05-13T14:55:49.414Z,22.80
2023-05-13T14:58:17.582Z,22.90
2023-05-13T15:00:44.585Z,23.20
2023-05-13T15:03:11.979Z,23.20
2023-05-13T15:05:39.096Z,23.20
2023-05-13T15:08:06.055Z,23.10
2023-05-13T15:10:32.934Z,22.90
2023-05-13T15:12:59.859Z,22.60
2023-05-13T15:15:26.733Z,22.30
2023-05-13T15:17:53.709Z,22.00
2023-05-13T15:20:20.800Z,22.00
2023-05-13T15:22:47.744Z,21.90
2023-05-13T15:25:14.749Z,21.50
2023-05-13T15:27:42.936Z,21.20
2023-05-13T15:30:10.794Z,20.90
2023-05-13T15:32:37.748Z,20.90
2023-05-13T15:35:05.476Z,21.10
2023-05-13T15:37:32.510Z,20.90
2023-05-13T15:39:59.511Z,20.90
2023-05-13T15:42:26.474Z,20.90
2023-05-13T15:44:53.457Z,21.30
2023-05-13T15:47:20.560Z,21.70
2023-05-13T15:49:47.586Z,21.90
2023-05-13T15:52:14.504Z,22.20
2023-05-13T15:54:41.595Z,22.10
2023-05-13T15:57:08.503Z,22.20
2023-05-13T15:59:35.558Z,22.40
2023-05-13T16:02:02.662Z,22.20
2023-05-13T16:04:29.867Z,22.10
2023-05-13T16:06:56.947Z,22.00
2023-05-13T16:09:23.994Z,21.80
2023-05-13T16:11:50.984Z,21.90
2023-05-13T16:14:19.422Z,22.00
2023-05-13T16:16:46.718Z,21.90
2023-05-13T16:19:13.869Z,22.00
2023-05-13T16:21:40.914Z,22.10
2023-05-13T16:24:07.997Z,22.10
2023-05-13T16:26:35.015Z,22.10
2023-05-13T16:29:02.061Z,22.00
2023-05-13T16:31:29.096Z,22.10
2023-05-13T16:33:56.245Z,22.10
2023-05-13T16:36:23.207Z,22.00
2023-05-13T16:38:50.244Z,22.00
2023-05-13T16:41:17.222Z,21.90
2023-05-13T16:43:44.197Z,22.00
2023-05-13T16:46:11.193Z,22.00
2023-05-13T16:48:38.178Z,21.90
2023-05-13T16:51:05.308Z,22.00
2023-05-13T16:53:33.477Z,21.80
2023-05-13T16:56:00.927Z,21.60
2023-05-13T16:58:27.909Z,21.40
2023-05-13T17:00:57.121Z,21.10
2023-05-13T17:03:25.553Z,21.00
2023-05-13T17:05:52.580Z,20.80
2023-05-13T17:08:19.512Z,20.50
2023-05-13T17:10:46.469Z,20.20
2023-05-13T17:13:13.565Z,20.00
2023-05-13T17:15:40.564Z,20.00
2023-05-13T17:18:07.567Z,19.90
2023-05-13T17:20:34.612Z,19.80
2023-05-13T17:23:01.536Z,19.80
2023-05-13T17:25:28.516Z,19.80
2023-05-13T17:27:55.457Z,19.70
2023-05-13T17:30:22.699Z,19.70
2023-05-13T17:32:49.982Z,19.70
2023-05-13T17:35:17.031Z,19.70
2023-05-13T17:37:43.986Z,19.60
2023-05-13T17:40:11.431Z,19.60
2023-05-13T17:42:38.414Z,19.50
2023-05-13T17:45:06.006Z,19.50
2023-05-13T17:47:33.014Z,19.50
2023-05-13T17:50:00.045Z,19.50
2023-05-13T17:52:26.969Z,19.40
2023-05-13T17:54:53.856Z,19.40
2023-05-13T17:57:20.784Z,19.30
2023-05-13T17:59:47.671Z,19.20
2023-05-13T18:02:14.699Z,19.20
2023-05-13T18:04:41.701Z,19.20
2023-05-13T18:07:09.002Z,19.10
2023-05-13T18:09:36.184Z,19.10
2023-05-13T18:12:03.189Z,19.10
2023-05-13T18:14:30.087Z,19.10
2023-05-13T18:16:56.969Z,19.00
2023-05-13T18:19:23.888Z,19.00
2023-05-13T18:21:50.811Z,19.00
2023-05-13T18:24:17.712Z,18.80
2023-05-13T18:26:44.664Z,18.50
2023-05-13T18:29:11.556Z,18.40
2023-05-13T18:31:38.501Z,18.40
2023-05-13T18:34:05.466Z,18.20
2023-05-13T18:36:32.344Z,18.10
2023-05-13T18:38:59.357Z,18.00
2023-05-13T18:41:26.257Z,17.90
2023-05-13T18:43:53.160Z,17.80
2023-05-13T18:46:20.296Z,17.60
2023-05-13T18:48:47.275Z,17.50
2023-05-13T18:51:14.132Z,17.40
2023-05-13T18:53:41.089Z,17.20
2023-05-13T18:56:08.012Z,17.10
2023-05-13T18:58:34.891Z,16.90
2023-05-13T19:01:01.865Z,16.80
2023-05-13T19:03:28.876Z,16.70
2023-05-13T19:05:55.831Z,16.60
2023-05-13T19:08:22.744Z,16.50
2023-05-13T19:10:49.660Z,16.40
2023-05-13T19:13:16.580Z,16.30
2023-05-13T19:15:46.981Z,16.00
2023-05-13T19:18:13.911Z,15.90
2023-05-13T19:20:40.869Z,15.80
2023-05-13T19:23:07.764Z,15.70
2023-05-13T19:25:34.709Z,15.70
2023-05-13T19:28:04.551Z,15.60
2023-05-13T19:30:31.448Z,15.50
2023-05-13T19:32:58.326Z,15.50
2023-05-13T19:35:25.270Z,15.50
2023-05-13T19:37:52.162Z,15.40
2023-05-13T19:40:19.240Z,15.40
2023-05-13T19:42:46.137Z,15.40
2023-05-13T19:45:13.055Z,15.40
2023-05-13T19:47:40.056Z,15.30
2023-05-13T19:50:07.532Z,15.20
2023-05-13T19:52:34.436Z,15.20
2023-05-13T19:55:01.388Z,15.30
2023-05-13T19:57:29.924Z,15.50
2023-05-13T19:59:59.125Z,15.60
2023-05-13T20:02:28.780Z,15.70
2023-05-13T20:04:55.829Z,15.70
2023-05-13T20:07:22.722Z,15.60
2023-05-13T20:09:49.589Z,15.40
2023-05-13T20:12:16.501Z,15.20
2023-05-13T20:14:45.429Z,15.20
2023-05-13T20:17:16.024Z,15.20
2023-05-13T20:19:42.944Z,15.20
2023-05-13T20:22:10.207Z,15.20
2023-05-13T20:24:37.110Z,15.20
2023-05-13T20:27:04.260Z,15.20
2023-05-13T20:29:38.123Z,15.40
2023-05-13T20:32:06.160Z,15.60
2023-05-13T20:34:36.489Z,15.60
2023-05-13T20:37:04.392Z,15.60
2023-05-13T20:39:31.351Z,15.60
2023-05-13T20:41:58.378Z,15.50
2023-05-13T20:44:25.281Z,15.40
2023-05-13T20:46:52.249Z,15.50
2023-05-13T20:49:19.145Z,15.60
2023-05-13T20:51:47.730Z,15.60
2023-05-13T20:54:15.050Z,15.60
2023-05-13T20:56:41.949Z,15.60
2023-05-13T20:59:11.247Z,15.60
2023-05-13T21:01:38.175Z,15.50
2023-05-13T21:04:05.429Z,15.40
2023-05-13T21:06:32.380Z,15.30
2023-05-13T21:08:59.360Z,15.20
2023-05-13T21:11:26.337Z,15.10
2023-05-13T21:13:53.276Z,15.00
2023-05-13T21:16:20.237Z,15.00
2023-05-13T21:18:47.241Z,15.00
2023-05-13T21:21:14.145Z,15.00
2023-05-13T21:23:41.738Z,15.00
2023-05-13T21:26:09.320Z,15.10
2023-05-13T21:28:36.228Z,15.10
2023-05-13T21:31:03.234Z,15.10
2023-05-13T21:33:30.309Z,15.10
2023-05-13T21:35:57.170Z,15.30
2023-05-13T21:38:24.181Z,15.40
2023-05-13T21:40:51.112Z,15.50
2023-05-13T21:43:18.087Z,15.50
2023-05-13T21:45:47.921Z,15.50
2023-05-13T21:48:15.150Z,15.60
2023-05-13T21:50:42.165Z,15.70
2023-05-13T21:53:09.152Z,15.70
2023-05-13T21:55:36.002Z,15.70
2023-05-13T21:58:03.031Z,15.80
2023-05-13T22:00:30.050Z,15.70
2023-05-13T22:02:57.237Z,15.70
2023-05-13T22:05:24.352Z,15.70
2023-05-13T22:07:51.368Z,15.50
2023-05-13T22:10:18.608Z,15.60
2023-05-13T22:12:45.545Z,15.60
2023-05-13T22:15:12.912Z,15.50
2023-05-13T22:17:39.997Z,15.60
2023-05-13T22:20:08.200Z,15.60
2023-05-13T22:22:35.105Z,15.70
2023-05-13T22:25:02.056Z,15.70
2023-05-13T22:27:31.214Z,15.60
2023-05-13T22:29:58.203Z,15.60
2023-05-13T22:32:25.285Z,15.50
2023-05-13T22:34:52.266Z,15.50
2023-05-13T22:37:19.254Z,15.50
2023-05-13T22:39:46.213Z,15.50
2023-05-13T22:42:13.086Z,15.50
2023-05-13T22:44:40.578Z,15.50
2023-05-13T22:47:07.590Z,15.50
2023-05-13T22:49:34.968Z,15.40
2023-05-13T22:52:01.822Z,15.40
2023-05-13T22:54:28.728Z,15.50
2023-05-13T22:56:55.573Z,15.50
2023-05-13T22:59:22.563Z,15.50
2023-05-13T23:01:49.594Z,15.50
2023-05-13T23:04:16.570Z,15.50
2023-05-13T23:06:43.447Z,15.60
2023-05-13T23:09:10.362Z,15.60
2023-05-13T23:11:37.401Z,15.60
2023-05-13T23:14:04.306Z,15.60
2023-05-13T23:16:31.236Z,15.50
2023-05-13T23:18:58.235Z,15.40
2023-05-13T23:21:25.254Z,15.40
2023-05-13T23:23:52.652Z,15.40
2023-05-13T23:26:19.791Z,15.50
2023-05-13T23:28:46.803Z,15.40
2023-05-13T23:31:13.703Z,15.40
2023-05-13T23:33:40.609Z,15.30
2023-05-13T23:36:07.650Z,15.10
2023-05-13T23:38:34.762Z,14.90
2023-05-13T23:41:01.640Z,14.70
2023-05-13T23:43:28.559Z,14.50
2023-05-13T23:45:55.528Z,14.30
2023-05-13T23:48:22.435Z,14.30
2023-05-13T23:50:49.319Z,14.20
2023-05-13T23:53:16.281Z,14.20
2023-05-13T23:55:43.169Z,14.20
2023-05-13T23:58:10.075Z,14.20
